createdAt,value
2023-04-09T00:00:13.762Z,46.47
2023-04-09T00:02:42.641Z,47.60
2023-04-09T00:05:11.265Z,46.72
2023-04-09T00:07:43.185Z,46.97
2023-04-09T00:10:12.607Z,52.17
2023-04-09T00:12:41.096Z,53.17
2023-04-09T00:15:14.983Z,50.42
2023-04-09T00:17:49.428Z,56.00
2023-04-09T00:20:17.844Z,54.80
2023-04-09T00:22:48.522Z,53.40
2023-04-09T00:25:16.904Z,49.97
2023-04-09T00:27:45.382Z,43.97
2023-04-09T00:30:13.699Z,53.47
2023-04-09T00:32:42.053Z,55.15
2023-04-09T00:35:11.541Z,56.45
2023-04-09T00:37:39.754Z,58.92
2023-04-09T00:40:11.060Z,57.50
2023-04-09T00:42:39.496Z,60.40
2023-04-09T00:45:09.126Z,53.65
2023-04-09T00:47:37.809Z,56.35
2023-04-09T00:50:07.387Z,60.42
2023-04-09T00:52:35.935Z,51.38
2023-04-09T00:55:07.257Z,70.38
2023-04-09T00:57:37.564Z,59.85
2023-04-09T01:00:08.895Z,55.65
2023-04-09T01:02:37.291Z,52.33
2023-04-09T01:05:06.691Z,55.70
2023-04-09T01:07:46.841Z,57.20
2023-04-09T01:10:25.838Z,51.10
2023-04-09T01:13:07.514Z,69.15
2023-04-09T01:15:40.016Z,53.97
2023-04-09T01:18:16.469Z,64.15
2023-04-09T01:20:49.078Z,63.40
2023-04-09T01:23:25.830Z,54.28
2023-04-09T01:26:04.675Z,52.15
2023-04-09T01:28:45.898Z,49.05
2023-04-09T01:31:16.630Z,45.45
2023-04-09T01:33:45.999Z,61.08
2023-04-09T01:36:16.061Z,59.22
2023-04-09T01:38:46.022Z,62.78
2023-04-09T01:41:18.349Z,51.40
2023-04-09T01:43:49.429Z,50.92
2023-04-09T01:46:18.786Z,57.15
2023-04-09T01:48:48.184Z,68.00
2023-04-09T01:51:17.740Z,55.10
2023-04-09T01:53:46.038Z,52.17
2023-04-09T01:56:14.609Z,62.33
2023-04-09T01:58:42.868Z,54.35
2023-04-09T02:01:18.352Z,40.42
2023-04-09T02:03:49.967Z,61.17
2023-04-09T02:06:27.568Z,53.15
2023-04-09T02:08:58.660Z,68.45
2023-04-09T02:11:30.622Z,78.32
2023-04-09T02:13:59.877Z,80.85
2023-04-09T02:16:30.727Z,76.65
2023-04-09T02:19:01.336Z,74.88
2023-04-09T02:21:31.823Z,76.10
2023-04-09T02:24:00.179Z,65.68
2023-04-09T02:26:28.510Z,66.65
2023-04-09T02:28:56.707Z,66.07
2023-04-09T02:31:25.299Z,69.60
2023-04-09T02:33:55.248Z,62.60
2023-04-09T02:36:23.825Z,82.50
2023-04-09T02:38:52.185Z,72.30
2023-04-09T02:41:21.079Z,71.82
2023-04-09T02:43:49.651Z,81.07
2023-04-09T02:46:18.450Z,90.07
2023-04-09T02:48:47.085Z,79.53
2023-04-09T02:51:16.673Z,78.40
2023-04-09T02:53:46.078Z,84.05
2023-04-09T02:56:14.346Z,74.78
2023-04-09T02:58:43.273Z,68.93
2023-04-09T03:01:11.545Z,56.88
2023-04-09T03:03:42.330Z,74.00
2023-04-09T03:06:11.041Z,61.50
2023-04-09T03:08:40.624Z,70.95
2023-04-09T03:11:09.288Z,69.22
2023-04-09T03:13:37.886Z,64.38
2023-04-09T03:16:06.823Z,82.90
2023-04-09T03:18:35.068Z,68.47
2023-04-09T03:21:06.987Z,68.65
2023-04-09T03:23:37.228Z,54.72
2023-04-09T03:26:09.290Z,68.53
2023-04-09T03:28:46.853Z,67.95
2023-04-09T03:31:15.134Z,77.80
2023-04-09T03:33:45.089Z,72.95
2023-04-09T03:36:13.878Z,86.18
2023-04-09T03:38:56.683Z,66.85
2023-04-09T03:41:34.328Z,62.65
2023-04-09T03:44:06.615Z,65.78
2023-04-09T03:46:45.495Z,68.72
2023-04-09T03:49:17.457Z,59.63
2023-04-09T03:51:46.495Z,79.18
2023-04-09T03:54:15.507Z,64.40
2023-04-09T03:56:46.170Z,58.75
2023-04-09T03:59:17.113Z,87.70
2023-04-09T04:01:48.894Z,67.65
2023-04-09T04:04:17.528Z,66.75
2023-04-09T04:06:51.566Z,67.53
2023-04-09T04:09:27.635Z,67.13
2023-04-09T04:12:15.595Z,84.63
2023-04-09T04:15:11.078Z,75.15
2023-04-09T04:17:53.584Z,73.85
2023-04-09T04:20:37.963Z,64.30
2023-04-09T04:23:11.069Z,67.97
2023-04-09T04:28:20.633Z,55.42
2023-04-09T04:30:48.879Z,67.00
2023-04-09T04:33:17.145Z,64.57
2023-04-09T04:35:51.445Z,70.72
2023-04-09T04:38:43.157Z,61.97
2023-04-09T04:41:23.593Z,91.50
2023-04-09T04:44:10.815Z,63.58
2023-04-09T04:46:39.707Z,83.20
2023-04-09T04:49:08.392Z,64.93
2023-04-09T04:51:44.242Z,59.45
2023-04-09T04:54:15.146Z,61.85
2023-04-09T04:56:51.417Z,75.20
2023-04-09T04:59:38.604Z,62.78
2023-04-09T05:02:08.378Z,55.22
2023-04-09T05:04:46.485Z,84.72
2023-04-09T05:07:18.468Z,72.50
2023-04-09T05:09:52.909Z,73.63
2023-04-09T05:12:21.593Z,58.33
2023-04-09T05:14:54.277Z,73.50
2023-04-09T05:17:22.914Z,70.45
2023-04-09T05:19:53.137Z,70.65
2023-04-09T05:22:27.552Z,68.38
2023-04-09T05:24:55.858Z,65.40
2023-04-09T05:27:26.148Z,65.68
2023-04-09T05:30:00.993Z,77.60
2023-04-09T05:32:29.975Z,57.45
2023-04-09T05:34:59.256Z,59.65
2023-04-09T05:37:29.885Z,66.53
2023-04-09T05:39:58.238Z,62.70
2023-04-09T05:42:27.194Z,58.13
2023-04-09T05:45:07.881Z,65.45
2023-04-09T05:47:37.007Z,67.18
2023-04-09T05:50:12.081Z,79.47
2023-04-09T05:52:40.788Z,67.00
2023-04-09T05:55:10.612Z,71.75
2023-04-09T05:57:46.587Z,59.47
2023-04-09T06:00:18.329Z,56.88
2023-04-09T06:02:47.981Z,59.53
2023-04-09T06:05:16.590Z,61.60
2023-04-09T06:07:44.876Z,56.83
2023-04-09T06:10:13.354Z,62.35
2023-04-09T06:12:41.608Z,45.85
2023-04-09T06:15:11.384Z,42.08
2023-04-09T06:17:41.633Z,48.05
2023-04-09T06:20:10.863Z,62.17
2023-04-09T06:22:39.101Z,45.72
2023-04-09T06:25:08.192Z,49.90
2023-04-09T06:27:36.865Z,53.05
2023-04-09T06:30:05.527Z,47.65
2023-04-09T06:32:43.396Z,49.03
2023-04-09T06:35:20.973Z,47.20
2023-04-09T06:37:49.188Z,45.47
2023-04-09T06:40:17.509Z,37.78
2023-04-09T06:42:46.066Z,42.67
2023-04-09T06:45:22.301Z,41.22
2023-04-09T06:47:50.956Z,41.08
2023-04-09T06:50:20.902Z,42.70
2023-04-09T06:52:49.596Z,35.17
2023-04-09T06:55:17.962Z,42.25
2023-04-09T06:57:46.268Z,44.40
2023-04-09T07:00:15.637Z,39.28
2023-04-09T07:02:44.794Z,35.45
2023-04-09T07:05:14.173Z,44.47
2023-04-09T07:07:44.131Z,43.05
2023-04-09T07:10:12.550Z,35.47
2023-04-09T07:12:41.637Z,35.83
2023-04-09T07:15:10.424Z,30.45
2023-04-09T07:17:39.167Z,33.58
2023-04-09T07:20:08.424Z,34.33
2023-04-09T07:22:37.829Z,37.15
2023-04-09T07:25:08.899Z,37.72
2023-04-09T07:27:37.870Z,39.40
2023-04-09T07:30:07.292Z,39.92
2023-04-09T07:32:35.982Z,32.63
2023-04-09T07:35:05.231Z,34.47
2023-04-09T07:37:33.813Z,33.65
2023-04-09T07:40:04.099Z,35.75
2023-04-09T07:42:33.834Z,35.67
2023-04-09T07:45:03.534Z,33.88
2023-04-09T07:47:32.564Z,32.85
2023-04-09T07:50:01.384Z,29.90
2023-04-09T07:52:30.020Z,32.33
2023-04-09T07:54:58.609Z,29.65
2023-04-09T07:57:27.725Z,29.73
2023-04-09T07:59:58.414Z,33.83
2023-04-09T08:02:26.862Z,29.15
2023-04-09T08:04:55.389Z,35.28
2023-04-09T08:07:23.994Z,30.10
2023-04-09T08:09:52.232Z,26.35
2023-04-09T08:12:20.949Z,29.08
2023-04-09T08:14:49.239Z,32.65
2023-04-09T08:17:19.209Z,26.50
2023-04-09T08:19:49.500Z,27.75
2023-04-09T08:22:17.805Z,26.33
2023-04-09T08:24:46.114Z,32.63
2023-04-09T08:27:14.795Z,27.63
2023-04-09T08:29:42.979Z,27.90
2023-04-09T08:32:11.779Z,28.08
2023-04-09T08:34:41.857Z,34.10
2023-04-09T08:37:10.527Z,25.50
2023-04-09T08:39:38.779Z,32.67
2023-04-09T08:42:09.334Z,25.25
2023-04-09T08:44:37.506Z,33.25
2023-04-09T08:47:10.164Z,27.17
2023-04-09T08:49:40.058Z,27.58
2023-04-09T08:52:10.268Z,31.80
2023-04-09T08:54:38.489Z,30.63
2023-04-09T08:57:07.618Z,25.38
2023-04-09T08:59:37.273Z,29.38
2023-04-09T09:02:09.418Z,20.52
2023-04-09T09:04:47.558Z,26.08
2023-04-09T09:07:18.415Z,34.03
2023-04-09T09:09:58.757Z,30.80
2023-04-09T09:12:39.300Z,30.58
2023-04-09T09:15:26.762Z,21.80
2023-04-09T09:17:56.929Z,25.52
2023-04-09T09:20:27.171Z,26.05
2023-04-09T09:22:57.723Z,26.80
2023-04-09T09:25:26.928Z,29.40
2023-04-09T09:27:55.810Z,31.45
2023-04-09T09:30:26.193Z,24.15
2023-04-09T09:32:55.418Z,21.48
2023-04-09T09:35:24.190Z,24.77
2023-04-09T09:38:05.111Z,21.27
2023-04-09T09:40:34.093Z,22.48
2023-04-09T09:43:02.357Z,20.95
2023-04-09T09:45:31.945Z,17.55
2023-04-09T09:48:00.571Z,20.65
2023-04-09T09:50:32.597Z,21.80
2023-04-09T09:53:05.716Z,22.45
2023-04-09T09:55:36.203Z,24.25
2023-04-09T09:58:12.021Z,19.70
2023-04-09T10:00:42.308Z,19.77
2023-04-09T10:03:16.012Z,21.60
2023-04-09T10:05:45.897Z,21.95
2023-04-09T10:08:16.064Z,24.50
2023-04-09T10:10:45.306Z,22.27
2023-04-09T10:13:19.280Z,19.73
2023-04-09T10:15:47.851Z,16.15
2023-04-09T10:18:16.943Z,27.45
2023-04-09T10:20:50.922Z,19.42
2023-04-09T10:23:32.239Z,21.52
2023-04-09T10:26:00.997Z,22.00
2023-04-09T10:28:30.060Z,18.70
2023-04-09T10:31:00.062Z,14.00
2023-04-09T10:33:29.181Z,19.70
2023-04-09T10:36:02.220Z,19.42
2023-04-09T10:38:40.911Z,17.15
2023-04-09T10:41:15.425Z,22.33
2023-04-09T10:43:44.052Z,17.42
2023-04-09T10:46:29.941Z,18.67
2023-04-09T10:49:14.650Z,15.05
2023-04-09T10:51:45.595Z,17.23
2023-04-09T10:54:43.762Z,19.75
2023-04-09T10:57:19.843Z,18.90
2023-04-09T10:59:50.184Z,18.17
2023-04-09T11:02:45.800Z,15.98
2023-04-09T11:05:23.417Z,16.88
2023-04-09T11:07:58.580Z,14.35
2023-04-09T11:10:28.546Z,17.90
2023-04-09T11:12:56.747Z,21.83
2023-04-09T11:15:25.084Z,16.00
2023-04-09T11:17:53.418Z,17.48
2023-04-09T11:20:23.685Z,16.58
2023-04-09T11:22:53.423Z,15.98
2023-04-09T11:25:23.180Z,16.42
2023-04-09T11:27:53.195Z,18.55
2023-04-09T11:30:22.116Z,14.73
2023-04-09T11:32:51.152Z,16.27
2023-04-09T11:35:21.892Z,15.93
2023-04-09T11:37:52.302Z,19.42
2023-04-09T11:40:22.351Z,15.95
2023-04-09T11:42:53.159Z,22.08
2023-04-09T11:45:27.464Z,15.52
2023-04-09T11:47:56.303Z,16.90
2023-04-09T11:50:25.618Z,16.50
2023-04-09T11:52:53.898Z,19.65
2023-04-09T11:55:26.642Z,15.65
2023-04-09T11:58:00.909Z,16.23
2023-04-09T12:00:30.665Z,16.47
2023-04-09T12:03:03.992Z,15.38
2023-04-09T12:05:35.171Z,19.10
2023-04-09T12:08:05.691Z,16.83
2023-04-09T12:10:35.905Z,17.08
2023-04-09T12:13:10.158Z,20.20
2023-04-09T12:15:41.646Z,13.55
2023-04-09T12:18:11.138Z,19.27
2023-04-09T12:20:42.751Z,17.90
2023-04-09T12:23:12.101Z,14.85
2023-04-09T12:25:44.002Z,18.10
2023-04-09T12:28:18.146Z,17.83
2023-04-09T12:30:49.357Z,14.55
2023-04-09T12:33:17.622Z,20.55
2023-04-09T12:35:46.387Z,16.70
2023-04-09T12:38:15.439Z,17.83
2023-04-09T12:40:43.999Z,20.67
2023-04-09T12:43:13.665Z,20.38
2023-04-09T12:45:41.988Z,20.85
2023-04-09T12:48:10.787Z,23.88
2023-04-09T12:50:39.343Z,20.02
2023-04-09T12:53:07.535Z,19.75
2023-04-09T12:55:36.173Z,17.65
2023-04-09T12:58:04.441Z,21.67
2023-04-09T13:00:34.066Z,18.00
2023-04-09T13:03:02.443Z,20.80
2023-04-09T13:05:31.527Z,20.88
2023-04-09T13:08:00.174Z,21.20
2023-04-09T13:10:28.421Z,19.35
2023-04-09T13:12:57.129Z,21.35
2023-04-09T13:15:25.311Z,22.70
2023-04-09T13:17:55.298Z,20.17
2023-04-09T13:20:23.930Z,19.85
2023-04-09T13:22:52.464Z,21.02
2023-04-09T13:25:21.295Z,15.65
2023-04-09T13:27:49.732Z,27.65
2023-04-09T13:30:18.449Z,21.80
2023-04-09T13:32:46.811Z,17.83
2023-04-09T13:35:16.556Z,20.15
2023-04-09T13:37:44.787Z,15.38
2023-04-09T13:40:13.735Z,17.83
2023-04-09T13:42:42.000Z,18.65
2023-04-09T13:45:11.341Z,17.95
2023-04-09T13:47:39.607Z,22.60
2023-04-09T13:50:10.612Z,17.63
2023-04-09T13:52:40.297Z,18.38
2023-04-09T13:55:10.780Z,19.42
2023-04-09T13:57:39.000Z,15.20
2023-04-09T14:00:09.416Z,17.45
2023-04-09T14:02:37.814Z,19.17
2023-04-09T14:05:07.549Z,16.27
2023-04-09T14:07:35.963Z,23.92
2023-04-09T14:10:06.598Z,17.80
2023-04-09T14:12:34.840Z,17.10
2023-04-09T14:15:03.515Z,15.48
2023-04-09T14:17:31.754Z,19.30
2023-04-09T14:20:00.684Z,18.27
2023-04-09T14:22:30.545Z,17.90
2023-04-09T14:24:59.879Z,17.92
2023-04-09T14:27:29.590Z,17.85
2023-04-09T14:29:58.712Z,17.25
2023-04-09T14:32:26.983Z,19.13
2023-04-09T14:34:55.475Z,15.85
2023-04-09T14:37:24.038Z,17.10
2023-04-09T14:39:52.271Z,18.60
2023-04-09T14:42:20.960Z,18.60
2023-04-09T14:44:50.550Z,17.98
2023-04-09T14:47:19.107Z,20.30
2023-04-09T14:49:47.372Z,16.70
2023-04-09T14:52:16.062Z,20.05
2023-04-09T14:54:44.281Z,18.65
2023-04-09T14:57:12.732Z,21.42
2023-04-09T14:59:40.962Z,19.33
2023-04-09T15:02:11.505Z,17.92
2023-04-09T15:04:39.920Z,18.08
2023-04-09T15:07:08.820Z,13.68
2023-04-09T15:09:37.015Z,16.83
2023-04-09T15:12:05.703Z,14.45
2023-04-09T15:14:34.371Z,15.55
2023-04-09T15:17:02.845Z,14.80
2023-04-09T15:19:32.956Z,10.88
2023-04-09T15:22:01.769Z,17.23
2023-04-09T15:24:29.964Z,16.38
2023-04-09T15:26:58.665Z,13.52
2023-04-09T15:29:26.827Z,12.43
2023-04-09T15:31:55.852Z,13.82
2023-04-09T15:34:25.783Z,15.00
2023-04-09T15:36:56.071Z,16.40
2023-04-09T15:39:24.577Z,12.30
2023-04-09T15:41:53.242Z,12.90
2023-04-09T15:44:21.450Z,11.45
2023-04-09T15:46:50.113Z,12.82
2023-04-09T15:49:19.555Z,15.95
2023-04-09T15:51:48.365Z,14.30
2023-04-09T15:54:18.001Z,14.57
2023-04-09T15:56:46.996Z,12.75
2023-04-09T15:59:16.415Z,13.00
2023-04-09T16:01:45.533Z,9.20
2023-04-09T16:04:13.821Z,12.90
2023-04-09T16:06:42.389Z,12.80
2023-04-09T16:09:10.579Z,11.68
2023-04-09T16:11:40.826Z,8.70
2023-04-09T16:14:09.288Z,7.30
2023-04-09T16:16:38.988Z,7.95
2023-04-09T16:19:07.238Z,10.73
2023-04-09T16:21:36.170Z,6.47
2023-04-09T16:24:04.406Z,8.57
2023-04-09T16:26:33.340Z,9.85
2023-04-09T16:29:04.231Z,5.53
2023-04-09T16:31:33.228Z,7.80
2023-04-09T16:34:01.790Z,8.57
2023-04-09T16:36:31.923Z,8.75
2023-04-09T16:39:00.331Z,14.05
2023-04-09T16:41:29.098Z,11.38
2023-04-09T16:43:57.282Z,10.45
2023-04-09T16:46:27.676Z,10.68
2023-04-09T16:48:55.948Z,10.93
2023-04-09T16:51:24.957Z,15.82
2023-04-09T16:53:53.180Z,13.00
2023-04-09T16:56:22.103Z,8.82
2023-04-09T16:58:50.501Z,12.50
2023-04-09T17:01:19.399Z,12.15
2023-04-09T17:03:51.461Z,14.82
2023-04-09T17:06:19.800Z,13.77
2023-04-09T17:08:48.503Z,11.55
2023-04-09T17:11:17.071Z,12.40
2023-04-09T17:13:46.032Z,12.57
2023-04-09T17:16:15.463Z,11.80
2023-04-09T17:18:43.949Z,11.23
2023-04-09T17:21:13.519Z,13.48
2023-04-09T17:23:42.882Z,16.35
2023-04-09T17:26:11.204Z,16.13
2023-04-09T17:28:39.676Z,18.17
2023-04-09T17:31:14.260Z,14.85
2023-04-09T17:33:43.891Z,14.65
2023-04-09T17:36:13.526Z,16.27
2023-04-09T17:38:42.895Z,17.35
2023-04-09T17:41:11.141Z,18.30
2023-04-09T17:43:39.646Z,23.73
2023-04-09T17:46:08.797Z,15.55
2023-04-09T17:48:38.402Z,17.63
2023-04-09T17:51:07.583Z,20.63
2023-04-09T17:53:37.681Z,19.45
2023-04-09T17:56:06.667Z,14.35
2023-04-09T17:58:34.850Z,19.25
2023-04-09T18:01:07.846Z,17.42
2023-04-09T18:03:36.541Z,20.25
2023-04-09T18:06:05.452Z,16.27
2023-04-09T18:08:33.668Z,18.95
2023-04-09T18:11:12.941Z,19.88
2023-04-09T18:13:42.258Z,20.30
2023-04-09T18:16:12.715Z,21.17
2023-04-09T18:18:41.260Z,24.10
2023-04-09T18:21:10.024Z,17.30
2023-04-09T18:23:40.111Z,20.30
2023-04-09T18:26:10.348Z,17.83
2023-04-09T18:28:38.610Z,15.32
2023-04-09T18:31:07.620Z,19.90
2023-04-09T18:33:35.827Z,13.13
2023-04-09T18:36:04.577Z,20.73
2023-04-09T18:38:32.905Z,20.98
2023-04-09T18:41:01.951Z,23.70
2023-04-09T18:43:31.558Z,23.52
2023-04-09T18:46:00.341Z,25.55
2023-04-09T18:48:28.570Z,29.75
2023-04-09T18:50:57.392Z,28.58
2023-04-09T18:53:26.707Z,27.50
2023-04-09T18:55:55.657Z,41.20
2023-04-09T18:58:24.015Z,28.75
2023-04-09T19:00:53.895Z,34.35
2023-04-09T19:03:22.690Z,29.45
2023-04-09T19:05:52.860Z,25.33
2023-04-09T19:08:21.096Z,29.45
2023-04-09T19:10:50.086Z,27.73
2023-04-09T19:13:18.281Z,27.98
2023-04-09T19:15:47.125Z,21.05
2023-04-09T19:18:18.756Z,39.53
2023-04-09T19:20:47.761Z,28.35
2023-04-09T19:23:15.996Z,33.35
2023-04-09T19:25:44.569Z,39.00
2023-04-09T19:28:12.745Z,36.20
2023-04-09T19:30:41.492Z,41.22
2023-04-09T19:33:09.797Z,35.88
2023-04-09T19:35:41.052Z,41.00
2023-04-09T19:38:09.577Z,40.00
2023-04-09T19:40:37.919Z,35.38
2023-04-09T19:43:06.154Z,39.05
2023-04-09T19:45:34.328Z,30.63
2023-04-09T19:48:02.587Z,41.05
2023-04-09T19:50:31.421Z,38.53
2023-04-09T19:53:01.046Z,34.55
2023-04-09T19:55:29.815Z,36.33
2023-04-09T19:57:58.048Z,44.00
2023-04-09T20:00:26.892Z,41.08
2023-04-09T20:02:55.325Z,35.45
2023-04-09T20:05:24.107Z,35.30
2023-04-09T20:07:53.643Z,37.38
2023-04-09T20:10:23.873Z,31.60
2023-04-09T20:12:52.438Z,28.95
2023-04-09T20:15:21.541Z,32.50
2023-04-09T20:17:50.584Z,36.83
2023-04-09T20:20:20.257Z,31.08
2023-04-09T20:22:56.493Z,36.95
2023-04-09T20:25:34.095Z,35.65
2023-04-09T20:28:03.451Z,34.58
2023-04-09T20:30:32.834Z,33.42
2023-04-09T20:33:01.367Z,33.15
2023-04-09T20:35:30.174Z,39.35
2023-04-09T20:37:58.383Z,31.02
2023-04-09T20:40:28.610Z,33.67
2023-04-09T20:42:57.629Z,30.75
2023-04-09T20:45:25.846Z,33.88
2023-04-09T20:47:54.174Z,30.85
2023-04-09T20:50:22.784Z,44.75
2023-04-09T20:52:51.367Z,40.47
2023-04-09T20:55:19.985Z,41.28
2023-04-09T20:57:49.594Z,36.95
2023-04-09T21:00:18.799Z,32.45
2023-04-09T21:02:47.436Z,38.65
2023-04-09T21:05:22.591Z,39.53
2023-04-09T21:07:52.902Z,46.35
2023-04-09T21:10:21.856Z,41.15
2023-04-09T21:12:51.821Z,41.45
2023-04-09T21:15:20.514Z,43.63
2023-04-09T21:17:48.856Z,49.60
2023-04-09T21:20:17.508Z,43.00
2023-04-09T21:22:46.262Z,55.28
2023-04-09T21:25:15.583Z,56.50
2023-04-09T21:27:44.684Z,48.88
2023-04-09T21:30:14.415Z,50.28
2023-04-09T21:32:43.116Z,56.85
2023-04-09T21:35:11.581Z,56.60
2023-04-09T21:37:40.204Z,52.72
2023-04-09T21:40:09.781Z,65.82
2023-04-09T21:42:38.485Z,54.83
2023-04-09T21:45:08.021Z,53.67
2023-04-09T21:47:37.774Z,48.25
2023-04-09T21:50:07.425Z,53.70
2023-04-09T21:52:35.759Z,74.22
2023-04-09T21:55:04.777Z,66.55
2023-04-09T21:57:33.027Z,61.97
2023-04-09T22:00:01.617Z,59.95
2023-04-09T22:02:30.312Z,55.15
2023-04-09T22:05:01.436Z,62.10
2023-04-09T22:07:30.078Z,56.05
2023-04-09T22:09:58.837Z,61.10
2023-04-09T22:12:27.139Z,53.35
2023-04-09T22:14:56.226Z,45.25
2023-04-09T22:17:24.467Z,53.10
2023-04-09T22:19:52.700Z,57.88
2023-04-09T22:22:23.116Z,56.38
2023-04-09T22:24:51.516Z,52.42
2023-04-09T22:27:20.344Z,51.10
2023-04-09T22:29:48.548Z,51.05
2023-04-09T22:32:17.783Z,52.30
2023-04-09T22:34:46.448Z,55.15
2023-04-09T22:37:17.055Z,44.80
2023-04-09T22:39:47.068Z,52.95
2023-04-09T22:42:15.652Z,46.35
2023-04-09T22:44:44.309Z,56.15
2023-04-09T22:47:13.295Z,42.60
2023-04-09T22:49:41.627Z,50.67
2023-04-09T22:52:10.525Z,52.90
2023-04-09T22:54:39.007Z,48.38
2023-04-09T22:57:09.003Z,58.42
2023-04-09T22:59:40.199Z,56.28
2023-04-09T23:02:09.922Z,55.60
2023-04-09T23:04:38.269Z,52.78
2023-04-09T23:07:08.269Z,55.08
2023-04-09T23:09:36.500Z,66.10
2023-04-09T23:12:05.126Z,63.67
2023-04-09T23:14:34.700Z,56.72
2023-04-09T23:17:03.891Z,60.42
2023-04-09T23:19:32.149Z,58.33
2023-04-09T23:22:00.948Z,52.72
2023-04-09T23:24:29.294Z,58.90
2023-04-09T23:26:57.838Z,56.55
2023-04-09T23:29:26.269Z,77.15
2023-04-09T23:31:56.168Z,71.50
2023-04-09T23:34:24.494Z,64.88
2023-04-09T23:36:53.620Z,65.10
2023-04-09T23:39:22.265Z,60.28
2023-04-09T23:41:50.479Z,59.92
2023-04-09T23:44:18.963Z,67.68
2023-04-09T23:46:47.267Z,57.40
2023-04-09T23:49:16.852Z,50.47
2023-04-09T23:51:45.515Z,51.53
2023-04-09T23:54:13.751Z,68.25
2023-04-09T23:56:42.651Z,60.05
2023-04-09T23:59:10.989Z,53.55
